Ranchita (211) Station Data

Red Flag Warning: No
Fire Weather Zone: 258
SDGE Region: Ramona
Lat/Lon: 33.21/-116.508

Observations

Time Wind Speed/Gust Temp(F) RH Fuel Moist Fuel Temp(F) Dewpt(F) Tmax(F) Tmin(F) Accum Precip 10-min Precip SL Press(mb)
3/29 8:00am 86 4 G 8 58° 20% - - 18° 58.7° 44.4° - - 1019.0
3/29 7:50am 59 2 G 4 57° 21% - - 18° 58° 44.4° - - 1019.0
3/29 7:40am 49 4 G 4 54° 25% - - 18° 56.3° 44.4° - - 1020.0
3/29 7:30am 32 3 G 5 51° 29% - - 20° 56.1° 44.4° - - 1021.0
3/29 7:20am 29 7 G 10 51° 25% - - 16° 56.1° 44.4° - - 1020.0
3/29 7:10am 27 7 G 8 50° 26% - - 16° 56.1° 44.4° - - 1021.0
3/29 7:00am 25 6 G 8 50° 24% - - 15° 56.1° 44.4° - - 1020.0
3/29 6:50am 50 3 G 7 45° 31% - - 16° 56.1° 44.4° - - 1022.0
3/29 6:40am 27 4 G 7 50° 25% - - 15° 56.1° 45.3° - - 1020.0
3/29 6:30am 30 5 G 7 51° 23% - - 15° 56.1° 45.3° - - 1020.0
3/29 6:20am 47 4 G 6 54° 20% - - 14° 56.1° 45.3° - - 1019.0
3/29 6:10am 39 3 G 6 53° 21% - - 14° 55.8° 45.3° - - 1019.0
3/29 6:00am 101 3 G 5 52° 22% - - 15° 55.8° 45.3° - - 1019.0
3/29 5:50am 142 3 G 6 54° 21% - - 15° 55.8° 45.3° - - 1019.0
3/29 5:40am 44 8 G 14 55° 20% - - 15° 55.8° 45.3° - - 1018.0
3/29 5:30am 42 8 G 14 54° 21% - - 15° 55.5° 45.3° - - 1018.0
3/29 5:20am 44 6 G 7 54° 22% - - 15° 54.7° 45.3° - - 1018.0
3/29 5:10am 34 7 G 10 54° 21% - - 15° 54.7° 45.3° - - 1018.0
3/29 5:00am 42 8 G 11 54° 20% - - 14° 54.7° 45.3° - - 1019.0
3/29 4:50am 53 6 G 9 53° 20% - - 13° 54° 45.3° - - 1019.0
3/29 4:40am 353 5 G 7 53° 21% - - 14° 54° 45.3° - - 1019.0
3/29 4:30am 10 5 G 11 52° 22% - - 14° 54° 45.3° - - 1019.0
3/29 4:20am 33 11 G 16 51° 22% - - 13° 54° 45.3° - - 1019.0
3/29 4:10am 23 9 G 12 50° 23% - - 14° 54° 45.3° - - 1020.0
3/29 4:00am 22 9 G 10 50° 23% - - 14° 54° 45.3° - - 1020.0
3/29 3:50am 28 8 G 10 49° 24% - - 14° 54° 45.3° - - 1020.0
3/29 3:40am 24 8 G 10 49° 23% - - 13° 54° 45.3° - - 1020.0
3/29 3:30am 30 8 G 10 49° 22% - - 13° 54° 45.3° - - 1020.0
3/29 3:20am 25 8 G 10 49° 22% - - 12° 54° 45.3° - - 1020.0
3/29 3:10am 30 8 G 10 48° 24% - - 13° 54° 45.3° - - 1020.0
3/29 3:00am 23 9 G 10 47° 25% - - 13° 54° 45.3° - - 1021.0
3/29 2:50am 17 9 G 11 48° 23% - - 13° 54° 45.3° - - 1020.0
3/29 2:40am 20 9 G 10 49° 22% - - 12° 54° 45.3° - - 1020.0
3/29 2:30am 20 9 G 10 49° 22% - - 12° 54° 45.3° - - 1020.0
3/29 2:20am 34 8 G 9 51° 21% - - 12° 54° 45.3° - - 1020.0
3/29 2:10am 37 8 G 10 51° 21% - - 12° 54° 45.3° - - 1020.0
3/29 2:00am 51 7 G 8 53° 19% - - 12° 54° 45.3° - - 1019.0
3/29 1:50am 45 7 G 9 48° 26% - - 14° 51° 45.3° - - 1021.0
3/29 1:40am 20 8 G 9 47° 29% - - 16° 49.8° 45.3° - - 1021.0
3/29 1:30am 22 8 G 10 48° 29% - - 17° 49.8° 45.3° - - 1021.0
3/29 1:20am 19 10 G 11 46° 32% - - 18° 49.8° 45.3° - - 1021.0
3/29 1:10am 23 9 G 11 46° 32% - - 18° 49.8° 45.6° - - 1021.0
3/29 1:00am 20 9 G 11 48° 30% - - 18° 49.8° 46.3° - - 1021.0
3/29 12:50am 24 8 G 8 49° 28% - - 17° 49.8° 46.3° - - 1021.0
3/29 12:40am 23 7 G 9 48° 30% - - 18° 49.2° 46.3° - - 1021.0
3/29 12:30am 23 8 G 9 47° 30% - - 18° 48.4° 46.3° - - 1021.0
3/29 12:20am 21 8 G 9 47° 31% - - 18° 47.8° 46.3° - - 1021.0
3/29 12:10am 24 8 G 9 47° 31% - - 18° 47.8° 46.4° - - 1021.0
3/29 12:00am 24 8 G 10 47° 31% - - 18° 66.8° 38.4° - - 1021.0
3/28 11:50pm 23 9 G 10 47° 32% - - 19° 66.8° 38.4° - - 1021.0
3/28 11:40pm 24 9 G 10 47° 33% - - 20° 66.8° 38.4° - - 1021.0
3/28 11:30pm 31 8 G 10 47° 33% - - 20° 66.8° 38.4° - - 1021.0
3/28 11:20pm 29 8 G 9 48° 33% - - 20° 66.8° 38.4° - - 1021.0
3/28 11:10pm 37 7 G 8 49° 31% - - 20° 66.8° 38.4° - - 1020.0
3/28 11:00pm 39 6 G 8 50° 30% - - 20° 66.8° 38.4° - - 1020.0
3/28 10:50pm 36 7 G 8 48° 32% - - 20° 66.8° 38.4° - - 1020.0
3/28 10:40pm 28 8 G 9 48° 32% - - 20° 66.8° 38.4° - - 1020.0
3/28 10:30pm 27 8 G 10 49° 31% - - 20° 66.8° 38.4° - - 1020.0
3/28 10:20pm 27 8 G 10 49° 31% - - 20° 66.8° 38.4° - - 1020.0
3/28 10:10pm 24 9 G 10 48° 31% - - 19° 66.8° 38.4° - - 1020.0
3/28 10:00pm 27 7 G 9 49° 32% - - 20° 66.8° 38.4° - - 1020.0
3/28 9:50pm 18 6 G 7 50° 29% - - 19° 66.8° 38.4° - - 1020.0
3/28 9:40pm 21 4 G 7 50° 33% - - 22° 66.8° 38.4° - - 1019.0
3/28 9:30pm 352 2 G 3 51° 41% - - 28° 66.8° 38.4° - - 1019.0
3/28 9:20pm 350 2 G 5 51° 39% - - 27° 66.8° 38.4° - - 1019.0
3/28 9:10pm 42 3 G 5 51° 40% - - 27° 66.8° 38.4° - - 1019.0
3/28 9:00pm 49 2 G 4 51° 50% - - 33° 66.8° 38.4° - - 1019.0
3/28 8:50pm 30 2 G 5 50° 52% - - 33° 66.8° 38.4° - - 1019.0
3/28 8:40pm 38 2 G 5 50° 52% - - 33° 66.8° 38.4° - - 1019.0
3/28 8:30pm 360 3 G 5 51° 53% - - 34° 66.8° 38.4° - - 1019.0
3/28 8:20pm 328 3 G 5 51° 54% - - 35° 66.8° 38.4° - - 1019.0
3/28 8:10pm 303 4 G 7 53° 54% - - 37° 66.8° 38.4° - - 1018.0
3/28 8:00pm 279 5 G 7 53° 54% - - 37° 66.8° 38.4° - - 1018.0
3/28 7:50pm 274 6 G 7 54° 52% - - 37° 66.8° 38.4° - - 1017.0
3/28 7:40pm 278 7 G 8 55° 52% - - 38° 66.8° 38.4° - - 1017.0
3/28 7:30pm 276 8 G 10 55° 53% - - 38° 66.8° 38.4° - - 1017.0
3/28 7:20pm 278 8 G 12 55° 52% - - 38° 66.8° 38.4° - - 1016.0
3/28 7:10pm 275 8 G 11 56° 52% - - 38° 66.8° 38.4° - - 1016.0
3/28 7:00pm 275 8 G 11 57° 50% - - 38° 66.8° 38.4° - - 1016.0
3/28 6:50pm 268 8 G 11 57° 47% - - 38° 66.8° 38.4° - - 1016.0
3/28 6:40pm 267 7 G 11 59° 45% - - 37° 66.8° 38.4° - - 1016.0
3/28 6:30pm 274 8 G 12 59° 42% - - 36° 66.8° 38.4° - - 1015.0
3/28 6:20pm 269 10 G 14 60° 40% - - 36° 66.8° 38.4° - - 1015.0
3/28 6:10pm 270 7 G 12 62° 35% - - 34° 66.8° 38.4° - - 1014.0
3/28 6:00pm 152 3 G 8 63° 19% - - 18° 66.8° 38.4° - - 1014.0
3/28 5:50pm 86 6 G 10 63° 13% - - 12° 66.8° 38.4° - - 1014.0
3/28 5:40pm 98 5 G 8 63° 13% - - 11° 66.8° 38.4° - - 1014.0
3/28 5:30pm 78 6 G 8 63° 13% - - 11° 66.8° 38.4° - - 1014.0
3/28 5:20pm 96 8 G 10 63° 13% - - 12° 66.8° 38.4° - - 1014.0
3/28 5:10pm 98 8 G 11 63° 13% - - 12° 66.8° 38.4° - - 1014.0
3/28 5:00pm 100 7 G 11 63° 13% - - 12° 66.8° 38.4° - - 1013.0
3/28 4:50pm 79 6 G 9 64° 13% - - 13° 66.8° 38.4° - - 1013.0
3/28 4:40pm 76 5 G 13 64° 13% - - 12° 66.8° 38.4° - - 1013.0
3/28 4:30pm 83 7 G 11 64° 13% - - 12° 66.8° 38.4° - - 1013.0
3/28 4:20pm 146 6 G 12 66° 13% - - 14° 66.8° 38.4° - - 1013.0
3/28 4:10pm 169 4 G 7 65° 13% - - 13° 66° 38.4° - - 1013.0
3/28 4:00pm 116 4 G 8 65° 13% - - 13° 65.3° 38.4° - - 1013.0
3/28 3:50pm 69 5 G 9 64° 14% - - 13° 64.4° 38.4° - - 1013.0
3/28 3:40pm 77 5 G 10 63° 13% - - 11° 63.9° 38.4° - - 1014.0
3/28 3:30pm 96 6 G 10 63° 14% - - 13° 63.8° 38.4° - - 1014.0
3/28 3:20pm 94 6 G 12 63° 14% - - 12° 63.5° 38.4° - - 1014.0
3/28 3:10pm 92 5 G 10 63° 13% - - 12° 63.5° 38.4° - - 1014.0
3/28 3:00pm 84 5 G 10 62° 13% - - 11° 63.1° 38.4° - - 1014.0
3/28 2:50pm 103 8 G 16 62° 14% - - 13° 63.1° 38.4° - - 1014.0
3/28 2:40pm 102 7 G 13 62° 13% - - 10° 63.1° 38.4° - - 1015.0
3/28 2:30pm 104 6 G 14 62° 14% - - 12° 63.1° 38.4° - - 1015.0
3/28 2:20pm 96 6 G 12 61° 13% - - 10° 63.1° 38.4° - - 1015.0
3/28 2:10pm 75 6 G 11 62° 13% - - 11° 63.1° 38.4° - - 1015.0
3/28 2:00pm 81 7 G 16 61° 13% - - 10° 63.1° 38.4° - - 1015.0
3/28 1:50pm 83 9 G 15 62° 14% - - 12° 63.1° 38.4° - - 1015.0
3/28 1:40pm 122 6 G 12 61° 14% - - 11° 63.1° 38.4° - - 1016.0
3/28 1:30pm 92 5 G 8 62° 14% - - 12° 63.1° 38.4° - - 1015.0
3/28 1:20pm 92 7 G 11 61° 14% - - 12° 63.1° 38.4° - - 1016.0
3/28 1:10pm 87 9 G 15 61° 14% - - 11° 63.1° 38.4° - - 1016.0
3/28 1:00pm 84 7 G 13 60° 14% - - 11° 63.1° 38.4° - - 1016.0
3/28 12:50pm 85 10 G 16 61° 15% - - 12° 63.1° 38.4° - - 1016.0
3/28 12:40pm 97 9 G 13 61° 15% - - 12° 63.1° 38.4° - - 1016.0
3/28 12:30pm 301 4 G 11 62° 13% - - 10° 63.1° 38.4° - - 1015.0
3/28 12:20pm 318 4 G 8 62° 14% - - 12° 63.1° 38.4° - - 1016.0
3/28 12:10pm 3 4 G 8 61° 12% - - 61.5° 38.4° - - 1016.0
3/28 12:00pm 340 6 G 12 60° 13% - - 60.7° 38.4° - - 1016.0
3/28 11:50am 310 4 G 10 60° 13% - - 10° 60.7° 38.4° - - 1016.0
3/28 11:40am 352 8 G 15 60° 13% - - 60.5° 38.4° - - 1016.0
3/28 11:30am 13 8 G 15 59° 13% - - 59.9° 38.4° - - 1017.0
3/28 11:20am 71 7 G 16 58° 16% - - 13° 59.4° 38.4° - - 1017.0
3/28 11:10am 104 5 G 11 58° 17% - - 14° 59.4° 38.4° - - 1017.0
3/28 11:00am 93 5 G 10 57° 20% - - 16° 58.3° 38.4° - - 1017.0
3/28 10:50am 116 7 G 11 57° 21% - - 18° 58.1° 38.4° - - 1017.0
3/28 10:40am 146 6 G 13 56° 21% - - 17° 57° 38.4° - - 1017.0
3/28 10:30am 189 4 G 7 56° 22% - - 17° 57° 38.4° - - 1017.0
3/28 10:20am 171 8 G 13 56° 22% - - 17° 57° 38.4° - - 1018.0
3/28 10:10am 171 4 G 9 56° 20% - - 16° 57° 38.4° - - 1017.0
3/28 10:00am 172 4 G 9 56° 20% - - 15° 57° 38.4° - - 1017.0
3/28 9:50am 124 5 G 9 55° 20% - - 15° 56.1° 38.4° - - 1018.0
3/28 9:40am 59 4 G 8 55° 20% - - 15° 56.1° 38.4° - - 1017.0
3/28 9:30am 221 3 G 6 56° 19% - - 14° 56.1° 38.4° - - 1017.0
3/28 9:20am 181 4 G 9 55° 20% - - 15° 56° 38.4° - - 1017.0
3/28 9:10am 138 3 G 5 54° 21% - - 15° 55° 38.4° - - 1018.0
3/28 9:00am 77 2 G 5 53° 21% - - 15° 54.5° 38.4° - - 1018.0
3/28 8:50am 114 3 G 7 52° 22% - - 15° 53° 38.4° - - 1018.0
3/28 8:40am 126 4 G 6 52° 23% - - 15° 52.3° 38.4° - - 1018.0
3/28 8:30am 105 4 G 5 52° 24% - - 16° 52.2° 38.4° - - 1018.0
3/28 8:20am 99 4 G 8 51° 24% - - 16° 52.1° 38.4° - - 1018.0
3/28 8:10am 154 2 G 4 51° 28% - - 19° 52.1° 38.4° - - 1018.0
3/28 8:00am 205 2 G 4 51° 29% - - 20° 51.9° 38.4° - - 1018.0
3/28 7:50am 31 3 G 5 49° 31% - - 19° 50° 38.4° - - 1018.0
3/28 7:40am 38 4 G 5 46° 32% - - 18° 48.8° 38.4° - - 1019.0
3/28 7:30am 31 6 G 8 44° 33% - - 17° 48.8° 38.4° - - 1019.0
3/28 7:20am 28 6 G 8 41° 37% - - 17° 48.8° 38.4° - - 1020.0
3/28 7:10am 23 8 G 9 43° 31% - - 14° 48.8° 38.4° - - 1020.0
3/28 7:00am 12 5 G 8 43° 31% - - 14° 48.8° 38.4° - - 1020.0
3/28 6:50am 316 3 G 6 42° 32% - - 14° 48.8° 38.4° - - 1020.0
3/28 6:40am 22 5 G 8 41° 34% - - 15° 48.8° 38.4° - - 1020.0
3/28 6:30am 23 8 G 10 41° 33% - - 14° 48.8° 39.3° - - 1020.0
3/28 6:20am 25 8 G 10 41° 32% - - 14° 48.8° 39.3° - - 1020.0
3/28 6:10am 27 6 G 9 44° 27% - - 12° 48.8° 39.3° - - 1019.0
3/28 6:00am 23 4 G 5 48° 22% - - 11° 48.8° 39.3° - - 1018.0